Time;durP1;ratioP1;P1;durP2;ratioP2;P2;SDS_P1;SDS_P2;PMS_P1;PMS_P2;Temp;Humidity;BMP_temperature;BMP_pressure;BME280_temperature;BME280_humidity;BME280_pressure;Samples;Min_cycle;Max_cycle;Signal;HPM_P1;HPM_P2
2023/04/29 00:02:01;;;;;;;25.55;17.63;;;11.60;99.90;;;;;;5116178;28;20282;-72
2023/04/29 00:04:27;;;;;;;26.58;17.65;;;11.60;99.90;;;;;;5115908;28;20213;-71
2023/04/29 00:06:53;;;;;;;29.05;18.73;;;11.60;99.90;;;;;;5115581;28;20530;-72
2023/04/29 00:09:20;;;;;;;25.75;19.00;;;11.50;99.90;;;;;;5115507;28;20283;-72
2023/04/29 00:11:46;;;;;;;29.30;18.48;;;11.50;99.90;;;;;;5116574;28;20172;-73
2023/04/29 00:14:12;;;;;;;28.08;19.20;;;11.40;99.90;;;;;;5116505;28;20171;-72
2023/04/29 00:16:38;;;;;;;29.77;19.48;;;11.40;99.90;;;;;;5116632;28;20260;-71
2023/04/29 00:19:04;;;;;;;31.83;20.17;;;11.30;99.90;;;;;;5116488;28;20636;-73
2023/04/29 00:21:32;;;;;;;28.75;19.27;;;11.30;99.90;;;;;;5116255;28;20656;-73
2023/04/29 00:23:57;;;;;;;30.35;21.15;;;11.20;99.90;;;;;;5116162;28;20172;-72
2023/04/29 00:26:23;;;;;;;37.10;23.08;;;11.20;99.90;;;;;;5116147;28;20242;-73
2023/04/29 00:28:49;;;;;;;31.35;21.35;;;11.20;99.90;;;;;;5115951;28;20204;-73
2023/04/29 00:31:15;;;;;;;34.95;21.65;;;11.20;99.90;;;;;;5114725;28;20177;-73
2023/04/29 00:33:40;;;;;;;39.85;23.08;;;11.20;99.90;;;;;;5115831;28;20184;-73
2023/04/29 00:36:07;;;;;;;38.72;23.35;;;11.20;99.90;;;;;;5115931;28;20176;-73
2023/04/29 00:38:33;;;;;;;37.10;24.08;;;11.20;99.90;;;;;;5114538;28;20266;-73
2023/04/29 00:40:59;;;;;;;39.95;25.75;;;11.20;99.90;;;;;;5114652;28;20212;-73
2023/04/29 00:43:25;;;;;;;38.70;25.38;;;11.20;99.90;;;;;;5116111;28;20561;-73
2023/04/29 00:45:51;;;;;;;38.53;24.92;;;11.20;99.90;;;;;;5116404;28;20215;-73
2023/04/29 00:48:17;;;;;;;39.23;26.47;;;11.20;99.90;;;;;;5115359;28;20664;-72
2023/04/29 00:50:42;;;;;;;40.70;25.48;;;11.20;99.90;;;;;;5115660;28;20193;-73
2023/04/29 00:53:11;;;;;;;43.95;25.77;;;11.20;99.90;;;;;;5115505;28;20222;-73
2023/04/29 00:55:38;;;;;;;39.73;25.00;;;11.20;99.90;;;;;;5115776;28;20169;-73
2023/04/29 00:58:04;;;;;;;43.00;26.10;;;11.20;99.90;;;;;;5115381;28;20203;-73
2023/04/29 01:00:30;;;;;;;45.88;27.33;;;11.20;99.90;;;;;;5113653;28;20223;-73
2023/04/29 01:02:56;;;;;;;43.90;26.80;;;11.20;99.90;;;;;;5114264;28;20211;-73
2023/04/29 01:05:25;;;;;;;43.53;28.42;;;11.20;99.90;;;;;;5115174;28;20615;-73
2023/04/29 01:08:38;;;;;;;48.13;28.38;;;11.20;99.90;;;;;;5115378;28;20687;-73
2023/04/29 01:11:08;;;;;;;51.33;30.30;;;11.20;99.90;;;;;;5100735;28;20180;-72
2023/04/29 01:13:50;;;;;;;44.17;27.90;;;11.10;99.90;;;;;;5114136;28;20203;-73
2023/04/29 01:16:36;;;;;;;46.87;27.63;;;11.20;99.90;;;;;;5115514;28;20221;-73
2023/04/29 01:19:14;;;;;;;47.57;28.87;;;11.20;99.90;;;;;;5115190;28;20200;-72
2023/04/29 01:21:50;;;;;;;48.87;28.37;;;11.10;99.90;;;;;;5115564;28;20172;-73
2023/04/29 01:24:16;;;;;;;47.67;27.83;;;11.10;99.90;;;;;;5115327;28;20186;-73
2023/04/29 01:26:50;;;;;;;47.90;27.83;;;11.00;99.90;;;;;;5115103;28;20546;-72
2023/04/29 01:29:37;;;;;;;51.58;28.70;;;11.00;99.90;;;;;;5115128;28;20187;-72
2023/04/29 01:32:17;;;;;;;44.30;26.77;;;10.90;99.90;;;;;;5113908;28;20263;-73
2023/04/29 01:35:15;;;;;;;47.17;27.60;;;10.80;99.90;;;;;;5114974;28;20176;-72
2023/04/29 01:38:06;;;;;;;47.35;25.45;;;10.90;99.90;;;;;;5113721;28;20211;-73
2023/04/29 01:40:35;;;;;;;49.75;29.05;;;10.80;99.90;;;;;;5115236;28;20207;-73
2023/04/29 01:43:03;;;;;;;48.67;28.53;;;10.80;99.90;;;;;;5114804;28;20632;-73
2023/04/29 01:45:31;;;;;;;57.63;29.87;;;10.80;99.90;;;;;;5113580;28;20176;-73
2023/04/29 01:47:58;;;;;;;65.05;32.13;;;10.80;99.90;;;;;;5114604;28;20304;-73
2023/04/29 01:50:23;;;;;;;59.03;31.13;;;10.80;99.90;;;;;;5114632;28;20177;-73
2023/04/29 01:52:49;;;;;;;52.83;31.65;;;10.80;99.90;;;;;;5114891;28;20187;-73
2023/04/29 01:55:15;;;;;;;63.90;32.57;;;10.80;99.90;;;;;;5114763;28;20176;-73
2023/04/29 01:57:41;;;;;;;58.77;32.27;;;10.70;99.90;;;;;;5114549;28;20200;-73
2023/04/29 02:00:07;;;;;;;66.47;31.63;;;10.70;99.90;;;;;;5114912;28;20255;-73
2023/04/29 02:02:34;;;;;;;61.10;31.57;;;10.70;99.90;;;;;;5115175;28;20172;-73
2023/04/29 02:04:59;;;;;;;53.00;30.27;;;10.60;99.90;;;;;;5114446;28;20656;-73
2023/04/29 02:07:25;;;;;;;59.67;29.73;;;10.70;99.90;;;;;;5114826;28;20264;-73
2023/04/29 02:09:51;;;;;;;61.80;32.70;;;10.60;99.90;;;;;;5114365;28;20260;-72
2023/04/29 02:12:16;;;;;;;56.70;30.17;;;10.60;99.90;;;;;;5112382;28;20223;-72
2023/04/29 02:14:42;;;;;;;65.22;31.63;;;10.50;99.90;;;;;;5114314;28;20301;-72
2023/04/29 02:17:08;;;;;;;63.13;30.37;;;10.50;99.90;;;;;;5112656;28;20660;-73
2023/04/29 02:19:34;;;;;;;62.50;28.92;;;10.50;99.90;;;;;;5114130;28;20172;-73
2023/04/29 02:21:59;;;;;;;62.60;31.00;;;10.50;99.90;;;;;;5114457;28;20211;-73
2023/04/29 02:24:25;;;;;;;66.22;32.17;;;10.50;99.90;;;;;;5113023;28;20184;-73
2023/04/29 02:26:52;;;;;;;71.97;34.03;;;10.40;99.90;;;;;;5114233;28;20675;-73
2023/04/29 02:29:18;;;;;;;65.13;34.25;;;10.40;99.90;;;;;;5114554;28;20194;-73
2023/04/29 02:31:43;;;;;;;74.30;35.83;;;10.40;99.90;;;;;;5112950;28;20176;-73
2023/04/29 02:34:09;;;;;;;73.47;35.10;;;10.40;99.90;;;;;;5112701;28;20200;-70
2023/04/29 02:36:35;;;;;;;79.60;36.57;;;10.30;99.90;;;;;;5114003;28;20180;-70
2023/04/29 02:39:01;;;;;;;75.53;35.17;;;10.30;99.90;;;;;;5112513;28;20223;-70
2023/04/29 02:41:26;;;;;;;74.60;35.00;;;10.30;99.90;;;;;;5114077;28;20538;-70
2023/04/29 02:43:52;;;;;;;81.77;36.23;;;10.30;99.90;;;;;;5114502;28;20176;-73
2023/04/29 02:46:18;;;;;;;99.30;41.30;;;10.20;99.90;;;;;;5112947;28;20764;-73
2023/04/29 02:48:44;;;;;;;93.20;38.27;;;10.10;99.90;;;;;;5112508;28;20291;-72
2023/04/29 02:51:10;;;;;;;89.53;39.17;;;10.00;99.90;;;;;;5112705;28;20314;-72
2023/04/29 02:53:36;;;;;;;101.63;41.73;;;10.00;99.90;;;;;;5113876;28;20544;-73
2023/04/29 02:56:02;;;;;;;112.40;43.93;;;9.90;99.90;;;;;;5113682;28;20172;-73
2023/04/29 02:58:27;;;;;;;104.90;42.90;;;9.90;99.90;;;;;;5114063;28;20601;-73
2023/04/29 03:00:53;;;;;;;110.10;43.37;;;9.90;99.90;;;;;;5113713;28;20203;-73
2023/04/29 03:03:19;;;;;;;105.73;44.83;;;9.80;99.90;;;;;;5113925;28;20173;-73
2023/04/29 03:05:45;;;;;;;103.03;43.90;;;9.80;99.90;;;;;;5113655;28;20648;-73
2023/04/29 03:08:10;;;;;;;107.57;44.20;;;9.80;99.90;;;;;;5112243;28;20215;-73
2023/04/29 03:10:36;;;;;;;111.67;44.83;;;9.80;99.90;;;;;;5113749;28;20660;-73
2023/04/29 03:13:02;;;;;;;100.03;45.43;;;9.70;99.90;;;;;;5114101;28;20173;-73
2023/04/29 03:15:28;;;;;;;113.37;43.83;;;9.70;99.90;;;;;;5113973;28;20194;-73
2023/04/29 03:17:54;;;;;;;103.57;42.37;;;9.70;99.90;;;;;;5112403;28;20204;-72
2023/04/29 03:20:20;;;;;;;105.23;43.17;;;9.80;99.90;;;;;;5113539;28;20181;-73
2023/04/29 03:22:46;;;;;;;87.50;38.03;;;9.70;99.90;;;;;;5114186;28;20180;-73
2023/04/29 03:25:12;;;;;;;84.23;36.83;;;9.70;99.90;;;;;;5116916;28;20172;-73
2023/04/29 03:27:38;;;;;;;91.60;37.97;;;9.70;99.90;;;;;;5117268;28;20208;-73
2023/04/29 03:30:05;;;;;;;87.20;38.43;;;9.70;99.90;;;;;;5117413;27;20659;-73
2023/04/29 03:32:30;;;;;;;83.57;37.07;;;9.70;99.90;;;;;;5117459;28;20168;-73
2023/04/29 03:34:56;;;;;;;78.83;35.67;;;9.70;99.90;;;;;;5116006;28;20195;-73
2023/04/29 03:37:22;;;;;;;67.40;34.07;;;9.60;99.90;;;;;;5115844;28;20676;-71
2023/04/29 03:39:48;;;;;;;73.83;34.47;;;9.60;99.90;;;;;;5115918;28;20215;-73
2023/04/29 03:42:13;;;;;;;75.03;33.63;;;9.60;99.90;;;;;;5115889;28;20177;-71
2023/04/29 03:44:39;;;;;;;71.00;32.57;;;9.60;99.90;;;;;;5115779;28;20656;-72
2023/04/29 03:47:05;;;;;;;65.33;31.70;;;9.60;99.90;;;;;;5117110;28;20248;-71
2023/04/29 03:49:31;;;;;;;72.47;32.07;;;9.60;99.90;;;;;;5115333;28;20220;-70
2023/04/29 03:51:57;;;;;;;67.73;32.33;;;9.60;99.90;;;;;;5116804;28;20235;-70
2023/04/29 03:54:23;;;;;;;64.83;30.70;;;9.60;99.90;;;;;;5116847;27;20225;-70
2023/04/29 03:56:48;;;;;;;68.93;31.53;;;9.60;99.90;;;;;;5116655;28;20181;-70
2023/04/29 03:59:14;;;;;;;57.87;30.90;;;9.60;99.90;;;;;;5116816;28;20179;-71
2023/04/29 04:01:40;;;;;;;63.27;29.73;;;9.60;99.90;;;;;;5117037;28;20207;-70
2023/04/29 04:04:06;;;;;;;56.03;27.27;;;9.50;99.90;;;;;;5116531;28;20238;-70
2023/04/29 04:06:32;;;;;;;56.23;27.70;;;9.40;99.90;;;;;;5116440;27;20180;-70
2023/04/29 04:08:57;;;;;;;61.30;30.07;;;9.40;99.90;;;;;;5116253;28;20204;-70
2023/04/29 04:11:23;;;;;;;58.07;29.37;;;9.40;99.90;;;;;;5117008;28;20173;-70
2023/04/29 04:13:49;;;;;;;61.80;31.77;;;9.40;99.90;;;;;;5115150;28;20229;-70
2023/04/29 04:16:14;;;;;;;57.10;29.77;;;9.40;99.90;;;;;;5116380;28;20624;-71
2023/04/29 04:18:40;;;;;;;63.70;32.47;;;9.40;99.90;;;;;;5114842;28;20197;-71
2023/04/29 04:21:10;;;;;;;65.27;31.13;;;9.40;99.90;;;;;;5115032;28;20183;-71
2023/04/29 04:23:39;;;;;;;63.03;29.17;;;9.40;99.90;;;;;;5114975;28;20191;-70
2023/04/29 04:26:05;;;;;;;60.23;29.37;;;9.40;99.90;;;;;;5114963;28;20287;-70
2023/04/29 04:28:30;;;;;;;56.03;27.30;;;9.40;99.90;;;;;;5116050;28;20692;-71
2023/04/29 04:30:57;;;;;;;55.20;27.83;;;9.40;99.90;;;;;;5116024;28;20181;-71
2023/04/29 04:33:23;;;;;;;57.20;27.73;;;9.40;99.90;;;;;;5116310;28;20629;-70
2023/04/29 04:35:49;;;;;;;54.10;27.70;;;9.40;99.90;;;;;;5115034;28;20649;-70
2023/04/29 04:38:16;;;;;;;52.53;28.30;;;9.40;99.90;;;;;;5114860;28;20204;-71
2023/04/29 04:40:42;;;;;;;53.53;27.87;;;9.40;99.90;;;;;;5114775;28;20636;-70
2023/04/29 04:43:08;;;;;;;52.43;27.37;;;9.50;99.90;;;;;;5116097;28;20177;-70
2023/04/29 04:45:34;;;;;;;54.63;27.53;;;9.50;99.90;;;;;;5116254;28;20169;-70
2023/04/29 04:48:00;;;;;;;55.63;27.70;;;9.50;99.90;;;;;;5115521;28;20539;-70
2023/04/29 04:50:29;;;;;;;50.70;28.13;;;9.50;99.90;;;;;;5115618;28;20713;-71
2023/04/29 04:52:55;;;;;;;62.93;30.43;;;9.40;99.90;;;;;;5114335;28;20196;-71
2023/04/29 04:55:22;;;;;;;63.53;32.33;;;9.40;99.90;;;;;;5114411;28;20180;-70
2023/04/29 04:57:47;;;;;;;71.13;33.40;;;9.40;99.90;;;;;;5115975;28;20685;-71
2023/04/29 05:00:13;;;;;;;65.63;31.40;;;9.40;99.90;;;;;;5116016;28;20168;-71
2023/04/29 05:02:39;;;;;;;69.10;33.67;;;9.40;99.90;;;;;;5114345;28;20203;-71
2023/04/29 05:05:05;;;;;;;64.90;32.50;;;9.30;99.90;;;;;;5113808;28;20620;-71
2023/04/29 05:07:34;;;;;;;66.00;33.00;;;9.30;99.90;;;;;;5115771;28;20193;-71
2023/04/29 05:10:00;;;;;;;59.37;30.67;;;9.30;99.90;;;;;;5113907;28;20181;-71
2023/04/29 05:12:30;;;;;;;68.83;33.77;;;9.40;99.90;;;;;;5115216;28;20173;-71
2023/04/29 05:14:57;;;;;;;73.23;35.07;;;9.40;99.90;;;;;;5115157;28;20168;-71
2023/04/29 05:17:23;;;;;;;69.20;33.33;;;9.40;99.90;;;;;;5115161;28;20192;-71
2023/04/29 05:19:49;;;;;;;65.10;30.90;;;9.40;99.90;;;;;;5114927;28;20167;-71
2023/04/29 05:22:15;;;;;;;63.73;33.10;;;9.40;99.90;;;;;;5115158;28;20180;-70
2023/04/29 05:24:41;;;;;;;63.13;30.77;;;9.30;99.90;;;;;;5113688;28;20548;-71
2023/04/29 05:27:07;;;;;;;64.90;32.03;;;9.40;99.90;;;;;;5115192;28;20239;-71
2023/04/29 05:29:32;;;;;;;65.53;31.40;;;9.40;99.90;;;;;;5114958;28;20200;-71
2023/04/29 05:31:58;;;;;;;58.37;29.60;;;9.50;99.90;;;;;;5114946;28;20172;-71
2023/04/29 05:34:24;;;;;;;58.90;30.40;;;9.50;99.90;;;;;;5117003;27;20180;-69
2023/04/29 05:36:50;;;;;;;61.33;31.20;;;9.50;99.90;;;;;;5135232;27;20172;-69
2023/04/29 05:39:16;;;;;;;52.83;29.63;;;9.60;99.90;;;;;;5135100;27;20600;-69
2023/04/29 05:41:42;;;;;;;57.87;31.23;;;9.50;99.90;;;;;;5135201;27;20228;-69
2023/04/29 05:44:08;;;;;;;58.17;30.90;;;9.50;99.90;;;;;;5135199;27;20176;-69
2023/04/29 05:46:34;;;;;;;56.60;30.77;;;9.50;99.90;;;;;;5134046;27;20175;-69
2023/04/29 05:49:00;;;;;;;52.07;29.67;;;9.50;99.90;;;;;;5134719;27;20572;-69
2023/04/29 05:51:27;;;;;;;56.87;31.83;;;9.50;99.90;;;;;;5135344;27;20179;-69
2023/04/29 05:53:53;;;;;;;60.53;31.37;;;9.60;99.90;;;;;;5133790;27;20727;-68
2023/04/29 05:56:19;;;;;;;55.83;33.03;;;9.60;99.90;;;;;;5135270;27;20164;-69
2023/04/29 05:58:45;;;;;;;55.60;31.73;;;9.60;99.90;;;;;;5135349;27;20558;-69
2023/04/29 06:01:11;;;;;;;55.80;30.77;;;9.60;99.90;;;;;;5134052;27;20191;-69
2023/04/29 06:03:37;;;;;;;54.07;31.07;;;9.70;99.90;;;;;;5135586;27;20248;-69
2023/04/29 06:06:03;;;;;;;51.77;31.73;;;9.70;99.90;;;;;;5118543;27;20652;-69
2023/04/29 06:08:29;;;;;;;48.70;30.77;;;9.70;99.90;;;;;;5115977;28;20203;-69
2023/04/29 06:10:55;;;;;;;53.70;31.67;;;9.80;99.90;;;;;;5116268;28;20181;-68
2023/04/29 06:13:21;;;;;;;56.67;32.20;;;9.80;99.90;;;;;;5116194;28;20179;-68
2023/04/29 06:15:47;;;;;;;52.23;31.20;;;9.80;99.90;;;;;;5117166;28;20227;-69
2023/04/29 06:18:13;;;;;;;51.30;30.93;;;9.80;99.90;;;;;;5114577;28;20196;-68
2023/04/29 06:20:39;;;;;;;51.47;31.03;;;9.80;99.90;;;;;;5112952;28;20180;-68
2023/04/29 06:23:05;;;;;;;55.43;32.53;;;9.90;99.90;;;;;;5114457;28;20290;-69
2023/04/29 06:25:30;;;;;;;53.13;30.27;;;9.90;99.90;;;;;;5114386;28;20180;-69
2023/04/29 06:27:57;;;;;;;48.53;30.07;;;10.00;99.90;;;;;;5112823;28;20248;-69
2023/04/29 06:30:23;;;;;;;48.50;30.63;;;10.10;99.90;;;;;;5114523;28;20160;-69
2023/04/29 06:32:56;;;;;;;43.73;29.33;;;10.20;99.90;;;;;;5114758;28;20617;-67
2023/04/29 06:35:22;;;;;;;43.90;27.20;;;10.20;99.90;;;;;;5115277;28;20188;-67
2023/04/29 06:37:47;;;;;;;44.17;28.93;;;10.20;99.90;;;;;;5112672;28;20196;-67
2023/04/29 06:40:13;;;;;;;39.70;25.97;;;10.20;99.90;;;;;;5113177;28;20654;-70
2023/04/29 06:42:39;;;;;;;44.53;27.63;;;10.20;99.90;;;;;;5115209;28;20165;-69
2023/04/29 06:45:06;;;;;;;43.63;27.63;;;10.10;99.90;;;;;;5114143;28;20164;-68
2023/04/29 06:47:31;;;;;;;46.07;29.07;;;10.00;99.90;;;;;;5112575;28;20223;-69
2023/04/29 06:49:57;;;;;;;47.97;27.87;;;10.10;99.90;;;;;;5114022;28;20597;-68
2023/04/29 06:52:23;;;;;;;46.90;30.10;;;10.10;99.90;;;;;;5114156;28;20621;-68
2023/04/29 06:54:49;;;;;;;44.27;28.50;;;10.10;99.90;;;;;;5112562;28;20222;-68
2023/04/29 06:57:14;;;;;;;42.13;28.10;;;10.00;99.90;;;;;;5114417;28;20322;-69
2023/04/29 06:59:40;;;;;;;43.37;27.77;;;10.00;99.90;;;;;;5115011;28;20299;-69
2023/04/29 07:02:06;;;;;;;41.47;28.80;;;10.00;99.90;;;;;;5117678;28;20216;-69
2023/04/29 07:04:32;;;;;;;48.67;29.93;;;9.90;99.90;;;;;;5117892;28;20180;-69
2023/04/29 07:06:58;;;;;;;43.30;28.97;;;9.90;99.90;;;;;;5118597;28;20176;-69
2023/04/29 07:09:26;;;;;;;43.50;29.47;;;9.80;99.90;;;;;;5118384;28;20188;-69
2023/04/29 07:11:52;;;;;;;48.00;28.43;;;9.80;99.90;;;;;;5116698;28;20183;-69
2023/04/29 07:14:18;;;;;;;44.23;28.27;;;9.70;99.90;;;;;;5118195;28;20574;-69
2023/04/29 07:16:44;;;;;;;42.53;27.07;;;9.70;99.90;;;;;;5118014;28;20225;-69
2023/04/29 07:19:09;;;;;;;41.83;27.27;;;9.70;99.90;;;;;;5117419;28;20603;-70
2023/04/29 07:21:35;;;;;;;48.43;29.10;;;9.70;99.90;;;;;;5117441;28;20175;-69
2023/04/29 07:24:03;;;;;;;47.03;29.53;;;9.70;99.90;;;;;;5117483;28;20218;-69
2023/04/29 07:26:29;;;;;;;45.07;29.57;;;9.70;99.90;;;;;;5116138;28;20176;-69
2023/04/29 07:28:55;;;;;;;46.20;28.53;;;9.70;99.90;;;;;;5117119;28;20226;-69
2023/04/29 07:31:21;;;;;;;48.33;30.07;;;9.60;99.90;;;;;;5116744;28;20629;-69
2023/04/29 07:33:47;;;;;;;47.00;28.73;;;9.60;99.90;;;;;;5117349;28;20149;-69
2023/04/29 07:36:13;;;;;;;48.17;27.23;;;9.60;99.90;;;;;;5117210;28;20540;-69
2023/04/29 07:38:39;;;;;;;45.07;26.43;;;9.70;99.90;;;;;;5117169;28;20188;-69
2023/04/29 07:41:05;;;;;;;47.43;27.00;;;9.60;99.90;;;;;;5117041;28;20177;-69
2023/04/29 07:43:30;;;;;;;46.93;27.67;;;9.60;99.90;;;;;;5116881;28;20180;-69
2023/04/29 07:45:56;;;;;;;46.70;26.87;;;9.50;99.90;;;;;;5116945;27;20176;-69
2023/04/29 07:48:22;;;;;;;47.73;27.33;;;9.50;99.90;;;;;;5116869;27;20249;-69
2023/04/29 07:50:48;;;;;;;47.30;26.70;;;9.60;99.90;;;;;;5116784;27;20168;-69
2023/04/29 07:53:14;;;;;;;48.53;28.13;;;9.60;99.90;;;;;;5115807;28;20226;-70
2023/04/29 07:55:41;;;;;;;47.30;26.73;;;9.60;99.90;;;;;;5115518;28;20268;-69
2023/04/29 07:58:06;;;;;;;42.90;27.17;;;9.60;99.90;;;;;;5115770;28;20287;-69
2023/04/29 08:00:33;;;;;;;47.40;27.37;;;9.60;99.90;;;;;;5116643;28;20283;-69
2023/04/29 08:02:58;;;;;;;43.70;26.43;;;9.60;99.90;;;;;;5115374;28;20176;-69
2023/04/29 08:05:25;;;;;;;41.30;26.53;;;9.60;99.90;;;;;;5117079;28;20191;-71
2023/04/29 08:07:51;;;;;;;44.13;26.50;;;9.50;99.90;;;;;;5116774;28;20196;-69
2023/04/29 08:10:18;;;;;;;41.83;25.57;;;9.50;99.90;;;;;;5114111;28;20175;-68
2023/04/29 08:12:48;;;;;;;39.13;25.87;;;9.50;99.90;;;;;;5117809;28;20178;-70
2023/04/29 08:15:14;;;;;;;46.50;26.07;;;9.40;99.90;;;;;;5115233;28;20179;-70
2023/04/29 08:17:41;;;;;;;41.03;26.07;;;9.50;99.90;;;;;;5114999;28;20188;-70
2023/04/29 08:20:08;;;;;;;45.87;26.30;;;9.50;99.90;;;;;;5116117;28;20481;-70
2023/04/29 08:22:34;;;;;;;42.27;27.93;;;9.50;99.90;;;;;;5116248;28;20168;-70
2023/04/29 08:25:01;;;;;;;46.43;27.80;;;9.50;99.90;;;;;;5116859;28;20156;-70
2023/04/29 08:27:27;;;;;;;54.40;29.50;;;9.50;99.90;;;;;;5116531;28;20194;-71
2023/04/29 08:29:53;;;;;;;54.57;30.93;;;9.50;99.90;;;;;;5116511;28;20168;-70
2023/04/29 08:32:19;;;;;;;60.37;31.83;;;9.40;99.90;;;;;;5116277;27;20225;-70
2023/04/29 08:34:44;;;;;;;60.37;31.40;;;9.50;99.90;;;;;;5114548;28;20184;-70
2023/04/29 08:37:10;;;;;;;67.10;35.43;;;9.60;99.90;;;;;;5116060;28;20183;-70
2023/04/29 08:39:36;;;;;;;71.23;37.00;;;9.50;99.90;;;;;;5116042;28;20176;-70
2023/04/29 08:42:09;;;;;;;68.07;35.23;;;9.50;99.90;;;;;;5114565;28;20179;-70
2023/04/29 08:44:35;;;;;;;74.40;36.93;;;9.60;99.90;;;;;;5115808;28;20251;-70
2023/04/29 08:47:02;;;;;;;81.73;39.40;;;9.60;99.90;;;;;;5114493;28;20183;-70
2023/04/29 08:49:28;;;;;;;80.53;39.30;;;9.60;99.90;;;;;;5115588;28;20561;-70
2023/04/29 08:51:54;;;;;;;81.33;40.47;;;9.60;99.90;;;;;;5114382;28;20237;-70
2023/04/29 08:54:20;;;;;;;96.37;43.67;;;9.60;99.90;;;;;;5116044;28;20625;-70
2023/04/29 08:56:46;;;;;;;89.20;42.97;;;9.60;99.90;;;;;;5114333;28;20236;-70
2023/04/29 08:59:15;;;;;;;101.37;45.10;;;9.50;99.90;;;;;;5115819;28;20153;-71
2023/04/29 09:01:43;;;;;;;100.60;45.33;;;9.60;99.90;;;;;;5115364;28;20188;-70
2023/04/29 09:04:13;;;;;;;101.10;47.37;;;9.60;99.90;;;;;;5115525;27;20173;-70
2023/04/29 09:06:39;;;;;;;108.50;49.03;;;9.60;99.90;;;;;;5136208;27;20156;-70
2023/04/29 09:09:06;;;;;;;105.73;49.20;;;9.50;99.90;;;;;;5136033;27;20217;-70
2023/04/29 09:11:33;;;;;;;110.83;49.37;;;9.60;99.90;;;;;;5135804;27;20509;-69
2023/04/29 09:14:03;;;;;;;104.27;49.17;;;9.60;99.90;;;;;;5135523;27;20176;-69
2023/04/29 09:16:29;;;;;;;111.37;53.33;;;9.60;99.90;;;;;;5134735;27;20179;-69
2023/04/29 09:18:55;;;;;;;104.70;53.07;;;9.70;99.90;;;;;;5134833;27;20204;-71
2023/04/29 09:21:32;;;;;;;107.37;50.93;;;9.70;99.90;;;;;;5134533;27;20267;-67
2023/04/29 09:24:00;;;;;;;104.53;49.47;;;9.70;99.90;;;;;;5134370;27;20167;-67
2023/04/29 09:26:26;;;;;;;102.87;50.87;;;9.70;99.90;;;;;;5136393;27;20195;-70
2023/04/29 09:29:06;;;;;;;102.57;50.50;;;9.70;99.90;;;;;;5136003;27;20200;-69
2023/04/29 09:31:32;;;;;;;104.33;51.13;;;9.70;99.90;;;;;;5137382;27;20159;-68
2023/04/29 09:33:58;;;;;;;102.33;50.67;;;9.70;99.90;;;;;;5136276;27;20152;-69
2023/04/29 09:36:44;;;;;;;96.00;46.57;;;9.80;99.90;;;;;;5116872;27;20187;-69
2023/04/29 09:39:12;;;;;;;96.33;48.10;;;9.80;99.90;;;;;;5114195;28;20200;-68
2023/04/29 09:41:51;;;;;;;92.80;47.37;;;9.80;99.90;;;;;;5113859;28;20176;-68
2023/04/29 09:44:22;;;;;;;81.67;44.07;;;9.80;99.90;;;;;;5115585;28;20217;-69
2023/04/29 09:46:58;;;;;;;81.70;43.20;;;9.80;99.90;;;;;;5114727;28;20166;-69
2023/04/29 09:49:25;;;;;;;79.32;42.47;;;9.90;99.90;;;;;;5116910;28;20232;-77
2023/04/29 09:52:01;;;;;;;69.63;39.07;;;10.00;99.90;;;;;;5115124;28;20184;-71
2023/04/29 09:54:30;;;;;;;74.20;39.70;;;10.10;99.90;;;;;;5114980;28;20160;-75
2023/04/29 09:56:57;;;;;;;59.23;36.17;;;10.20;99.90;;;;;;5120870;28;20261;-73
2023/04/29 09:59:25;;;;;;;68.18;37.75;;;10.50;99.90;;;;;;5122661;28;20157;-78
2023/04/29 10:01:55;;;;;;;59.50;36.25;;;10.80;99.90;;;;;;5122747;28;20196;-74
2023/04/29 10:04:23;;;;;;;59.95;35.70;;;11.20;99.90;;;;;;5114470;28;20180;-77
2023/04/29 10:06:51;;;;;;;58.80;35.15;;;11.60;99.90;;;;;;5115277;28;20167;-72
2023/04/29 10:09:19;;;;;;;60.65;34.25;;;12.00;99.90;;;;;;5116400;28;20180;-77
2023/04/29 10:11:47;;;;;;;49.58;29.83;;;12.30;99.90;;;;;;5115228;28;20207;-76
2023/04/29 10:14:23;;;;;;;50.33;29.60;;;12.50;99.90;;;;;;5114726;28;20196;-75
2023/04/29 10:17:08;;;;;;;46.92;27.85;;;12.60;99.90;;;;;;5114468;28;20172;-74
2023/04/29 10:19:55;;;;;;;49.95;30.90;;;12.80;99.90;;;;;;5116197;27;20176;-75
2023/04/29 10:22:58;;;;;;;42.22;27.92;;;12.50;44.30;;;;;;5115248;28;20180;-75
2023/04/29 10:25:26;;;;;;;45.53;29.20;;;12.40;85.20;;;;;;5073394;28;20596;-75
2023/04/29 10:27:54;;;;;;;46.35;28.65;;;12.40;94.40;;;;;;5103768;28;20215;-74
2023/04/29 10:30:21;;;;;;;47.78;29.60;;;12.50;12.80;;;;;;5116902;28;20209;-70
2023/04/29 10:32:49;;;;;;;49.95;31.38;;;12.60;49.80;;;;;;5112590;28;20168;-72
2023/04/29 10:35:18;;;;;;;46.83;30.63;;;12.50;1.00;;;;;;5113483;28;20180;-68
2023/04/29 10:37:46;;;;;;;47.78;30.13;;;12.50;99.90;;;;;;5114214;28;20321;-68
2023/04/29 10:40:17;;;;;;;44.65;28.77;;;12.70;40.70;;;;;;5115002;28;20157;-68
2023/04/29 10:42:45;;;;;;;41.03;28.20;;;13.10;99.90;;;;;;5112903;28;20217;-69
2023/04/29 10:45:27;;;;;;;39.92;25.55;;;13.40;1.00;;;;;;5114190;28;20172;-70
2023/04/29 10:48:04;;;;;;;37.35;25.55;;;13.50;1.00;;;;;;5112404;28;20200;-70
2023/04/29 10:50:48;;;;;;;35.97;26.38;;;13.80;1.00;;;;;;5112384;28;20172;-70
2023/04/29 10:53:16;;;;;;;40.75;25.33;;;13.70;1.00;;;;;;5113849;28;20172;-69
2023/04/29 10:55:45;;;;;;;35.38;25.95;;;13.70;99.90;;;;;;5113871;28;20588;-69
2023/04/29 10:58:36;;;;;;;37.60;23.55;;;13.60;99.90;;;;;;5113779;28;20188;-69
2023/04/29 11:01:02;;;;;;;32.38;23.27;;;13.60;99.90;;;;;;5113745;28;20191;-69
2023/04/29 11:04:00;;;;;;;29.83;21.08;;;13.80;1.00;;;;;;5112755;28;20181;-69
2023/04/29 11:06:35;;;;;;;33.92;23.75;;;13.70;7.60;;;;;;5112555;28;20283;-69
2023/04/29 11:09:08;;;;;;;28.77;20.58;;;13.80;1.00;;;;;;5114593;28;20227;-69
2023/04/29 11:11:40;;;;;;;33.17;22.25;;;14.00;1.00;;;;;;5115253;28;20160;-69
2023/04/29 11:14:09;;;;;;;29.08;21.23;;;14.20;1.00;;;;;;5112930;28;20180;-69
2023/04/29 11:16:38;;;;;;;32.17;21.80;;;14.30;99.90;;;;;;5113250;28;20261;-69
2023/04/29 11:19:08;;;;;;;30.50;21.45;;;14.30;1.00;;;;;;5114138;28;20276;-69
2023/04/29 11:21:35;;;;;;;29.83;21.45;;;14.30;99.90;;;;;;5113534;28;20241;-69
2023/04/29 11:24:03;;;;;;;31.38;22.05;;;14.30;99.90;;;;;;5114411;28;20537;-69
2023/04/29 11:26:29;;;;;;;30.65;22.10;;;14.10;99.90;;;;;;5114005;28;20324;-69
2023/04/29 11:28:57;;;;;;;27.95;21.45;;;14.10;99.90;;;;;;5112331;28;20200;-69
2023/04/29 11:31:32;;;;;;;31.30;21.92;;;13.90;1.00;;;;;;5112682;28;20579;-69
2023/04/29 11:33:59;;;;;;;27.33;19.45;;;14.00;1.00;;;;;;5114395;28;20159;-69
2023/04/29 11:36:26;;;;;;;27.15;19.52;;;14.00;1.00;;;;;;5113424;28;20292;-69
2023/04/29 11:38:52;;;;;;;21.85;18.30;;;14.10;43.90;;;;;;5113765;28;20192;-69
2023/04/29 11:41:20;;;;;;;30.52;20.95;;;14.20;86.60;;;;;;5113521;28;20208;-69
2023/04/29 11:43:46;;;;;;;26.10;18.90;;;14.30;99.90;;;;;;5113832;28;20204;-69
2023/04/29 11:46:17;;;;;;;27.75;20.38;;;14.20;1.00;;;;;;5115345;28;20208;-68
2023/04/29 11:48:47;;;;;;;26.77;20.20;;;14.10;1.00;;;;;;5115773;28;20745;-72
2023/04/29 11:51:14;;;;;;;23.10;19.52;;;14.10;1.00;;;;;;5117363;28;20541;-72
2023/04/29 11:53:40;;;;;;;27.20;19.45;;;14.10;1.00;;;;;;5117563;28;20161;-73
2023/04/29 11:56:07;;;;;;;22.02;17.65;;;14.20;1.00;;;;;;5115933;28;20176;-70
2023/04/29 11:58:33;;;;;;;31.98;20.92;;;14.40;1.00;;;;;;5117805;28;20607;-74
2023/04/29 12:00:59;;;;;;;24.10;18.85;;;14.40;99.90;;;;;;5115921;28;20200;-73
2023/04/29 12:03:25;;;;;;;24.65;18.55;;;14.40;99.90;;;;;;5117683;28;20217;-78
2023/04/29 12:05:53;;;;;;;23.35;18.67;;;14.40;99.90;;;;;;5118060;28;20188;-76
2023/04/29 12:08:23;;;;;;;27.88;18.27;;;14.30;99.90;;;;;;5116057;28;20204;-76
2023/04/29 12:10:50;;;;;;;27.20;19.20;;;14.20;99.90;;;;;;5117030;27;20157;-78
2023/04/29 12:13:21;;;;;;;27.70;18.40;;;14.00;99.90;;;;;;5117070;28;20171;-69
2023/04/29 12:15:49;;;;;;;21.05;17.10;;;13.80;99.90;;;;;;5115515;28;20231;-69
2023/04/29 12:18:17;;;;;;;27.55;17.63;;;13.70;99.90;;;;;;5116682;28;20185;-70
2023/04/29 12:20:55;;;;;;;22.48;17.30;;;13.70;1.00;;;;;;5116357;28;20225;-68
2023/04/29 12:23:22;;;;;;;23.67;18.25;;;13.60;99.90;;;;;;5116227;28;20164;-75
2023/04/29 12:25:55;;;;;;;24.42;17.58;;;13.40;99.90;;;;;;5117786;28;20183;-73
2023/04/29 12:28:21;;;;;;;22.30;16.20;;;13.30;1.00;;;;;;5116015;28;20224;-74
2023/04/29 12:30:48;;;;;;;21.83;16.58;;;13.30;1.00;;;;;;5117627;28;20194;-71
2023/04/29 12:33:36;;;;;;;24.73;17.23;;;13.30;1.00;;;;;;5117035;27;20161;-73
2023/04/29 12:36:02;;;;;;;23.13;17.38;;;13.20;1.00;;;;;;5115315;28;20187;-75